sensor_id;sensor_type;location;lat;lon;timestamp;pressure;altitude;pressure_sealevel;temperature;humidity
74542;BME280;63015;45.378;20.360;2023-04-24T00:01:39;100083.53;;;14.18;55.24
74542;BME280;63015;45.378;20.360;2023-04-24T00:03:39;100083.56;;;14.17;55.73
74542;BME280;63015;45.378;20.360;2023-04-24T00:05:40;100078.44;;;14.12;56.40
74542;BME280;63015;45.378;20.360;2023-04-24T00:07:41;100061.78;;;14.14;56.38
74542;BME280;63015;45.378;20.360;2023-04-24T00:09:43;100057.50;;;14.09;56.65
74542;BME280;63015;45.378;20.360;2023-04-24T00:11:43;100041.75;;;14.12;56.52
74542;BME280;63015;45.378;20.360;2023-04-24T00:13:44;100030.38;;;14.11;56.53
74542;BME280;63015;45.378;20.360;2023-04-24T00:15:45;100041.56;;;14.20;56.21
74542;BME280;63015;45.378;20.360;2023-04-24T00:17:46;100046.66;;;14.27;55.65
74542;BME280;63015;45.378;20.360;2023-04-24T00:19:47;100057.94;;;14.31;55.50
74542;BME280;63015;45.378;20.360;2023-04-24T00:21:48;100058.69;;;14.35;55.53
74542;BME280;63015;45.378;20.360;2023-04-24T00:23:52;100056.03;;;14.38;55.48
74542;BME280;63015;45.378;20.360;2023-04-24T00:25:53;100065.63;;;14.37;55.75
74542;BME280;63015;45.378;20.360;2023-04-24T00:27:54;100064.69;;;14.40;55.75
74542;BME280;63015;45.378;20.360;2023-04-24T00:29:54;100062.97;;;14.40;55.56
74542;BME280;63015;45.378;20.360;2023-04-24T00:31:55;100059.50;;;14.38;55.84
74542;BME280;63015;45.378;20.360;2023-04-24T00:33:56;100048.03;;;14.42;55.44
74542;BME280;63015;45.378;20.360;2023-04-24T00:35:56;100058.41;;;14.48;55.27
74542;BME280;63015;45.378;20.360;2023-04-24T00:37:58;100042.81;;;14.42;55.69
74542;BME280;63015;45.378;20.360;2023-04-24T00:39:58;100048.94;;;14.43;55.42
74542;BME280;63015;45.378;20.360;2023-04-24T00:41:59;100042.63;;;14.52;55.27
74542;BME280;63015;45.378;20.360;2023-04-24T00:44:02;100039.06;;;14.54;55.34
74542;BME280;63015;45.378;20.360;2023-04-24T00:46:03;100032.19;;;14.48;55.33
74542;BME280;63015;45.378;20.360;2023-04-24T00:48:04;100033.13;;;14.46;55.42
74542;BME280;63015;45.378;20.360;2023-04-24T00:50:05;100033.03;;;14.51;55.19
74542;BME280;63015;45.378;20.360;2023-04-24T00:52:06;100026.09;;;14.48;55.51
74542;BME280;63015;45.378;20.360;2023-04-24T00:54:09;100025.97;;;14.53;55.00
74542;BME280;63015;45.378;20.360;2023-04-24T00:56:10;100026.09;;;14.48;55.32
74542;BME280;63015;45.378;20.360;2023-04-24T00:58:11;100021.69;;;14.48;55.31
74542;BME280;63015;45.378;20.360;2023-04-24T01:00:12;100022.72;;;14.43;55.73
74542;BME280;63015;45.378;20.360;2023-04-24T01:02:12;100014.72;;;14.47;55.39
74542;BME280;63015;45.378;20.360;2023-04-24T01:04:14;100020.84;;;14.48;55.47
74542;BME280;63015;45.378;20.360;2023-04-24T01:06:15;100025.38;;;14.41;55.69
74542;BME280;63015;45.378;20.360;2023-04-24T01:08:17;100028.00;;;14.41;55.55
74542;BME280;63015;45.378;20.360;2023-04-24T01:10:18;100031.69;;;14.33;55.88
74542;BME280;63015;45.378;20.360;2023-04-24T01:12:20;100029.94;;;14.31;56.40
74542;BME280;63015;45.378;20.360;2023-04-24T01:14:21;100030.03;;;14.27;56.68
74542;BME280;63015;45.378;20.360;2023-04-24T01:16:23;100024.78;;;14.28;56.09
74542;BME280;63015;45.378;20.360;2023-04-24T01:18:24;100029.28;;;14.22;56.61
74542;BME280;63015;45.378;20.360;2023-04-24T01:20:25;100025.69;;;14.27;56.28
74542;BME280;63015;45.378;20.360;2023-04-24T01:22:26;100023.28;;;14.18;56.95
74542;BME280;63015;45.378;20.360;2023-04-24T01:24:28;100022.34;;;14.21;56.71
74542;BME280;63015;45.378;20.360;2023-04-24T01:26:29;100030.22;;;14.19;56.73
74542;BME280;63015;45.378;20.360;2023-04-24T01:28:30;100031.16;;;14.17;56.98
74542;BME280;63015;45.378;20.360;2023-04-24T01:30:31;100031.13;;;14.18;56.89
74542;BME280;63015;45.378;20.360;2023-04-24T01:32:33;100031.38;;;14.06;57.32
74542;BME280;63015;45.378;20.360;2023-04-24T01:34:34;100030.28;;;14.16;57.15
74542;BME280;63015;45.378;20.360;2023-04-24T01:36:35;100024.38;;;14.08;57.41
74542;BME280;63015;45.378;20.360;2023-04-24T01:38:36;100031.31;;;14.09;57.23
74542;BME280;63015;45.378;20.360;2023-04-24T01:40:37;100033.22;;;14.02;57.95
74542;BME280;63015;45.378;20.360;2023-04-24T01:42:40;100031.47;;;14.03;57.90
74542;BME280;63015;45.378;20.360;2023-04-24T01:44:42;100039.25;;;14.06;57.55
74542;BME280;63015;45.378;20.360;2023-04-24T01:46:42;100033.22;;;14.02;57.58
74542;BME280;63015;45.378;20.360;2023-04-24T01:48:45;100037.47;;;14.06;57.74
74542;BME280;63015;45.378;20.360;2023-04-24T01:50:46;100038.31;;;14.08;57.55
74542;BME280;63015;45.378;20.360;2023-04-24T01:52:46;100042.75;;;14.05;57.78
74542;BME280;63015;45.378;20.360;2023-04-24T01:54:47;100051.50;;;14.05;57.53
74542;BME280;63015;45.378;20.360;2023-04-24T01:56:48;100047.03;;;14.09;57.74
74542;BME280;63015;45.378;20.360;2023-04-24T01:58:50;100050.75;;;13.98;58.09
74542;BME280;63015;45.378;20.360;2023-04-24T02:00:52;100052.50;;;13.98;58.49
74542;BME280;63015;45.378;20.360;2023-04-24T02:02:54;100052.63;;;13.92;58.61
74542;BME280;63015;45.378;20.360;2023-04-24T02:04:55;100048.28;;;13.92;58.93
74542;BME280;63015;45.378;20.360;2023-04-24T02:06:56;100043.09;;;13.89;59.14
74542;BME280;63015;45.378;20.360;2023-04-24T02:08:59;100030.09;;;13.83;59.38
74542;BME280;63015;45.378;20.360;2023-04-24T02:10:59;100024.06;;;13.81;60.01
74542;BME280;63015;45.378;20.360;2023-04-24T02:13:02;100008.47;;;13.75;60.39
74542;BME280;63015;45.378;20.360;2023-04-24T02:15:03;99986.81;;;13.67;60.65
74542;BME280;63015;45.378;20.360;2023-04-24T02:17:04;99995.44;;;13.72;60.82
74542;BME280;63015;45.378;20.360;2023-04-24T02:19:05;99991.91;;;13.73;60.47
74542;BME280;63015;45.378;20.360;2023-04-24T02:21:06;99993.63;;;13.74;60.46
74542;BME280;63015;45.378;20.360;2023-04-24T02:23:06;100017.94;;;13.80;60.29
74542;BME280;63015;45.378;20.360;2023-04-24T02:25:07;100012.78;;;13.77;60.65
74542;BME280;63015;45.378;20.360;2023-04-24T02:27:08;100005.94;;;13.70;60.94
74542;BME280;63015;45.378;20.360;2023-04-24T02:29:09;100012.03;;;13.71;60.91
74542;BME280;63015;45.378;20.360;2023-04-24T02:31:09;100023.34;;;13.73;60.36
74542;BME280;63015;45.378;20.360;2023-04-24T02:33:11;100032.19;;;13.67;60.51
74542;BME280;63015;45.378;20.360;2023-04-24T02:35:12;100027.63;;;13.77;59.77
74542;BME280;63015;45.378;20.360;2023-04-24T02:37:12;100031.16;;;13.76;59.94
74542;BME280;63015;45.378;20.360;2023-04-24T02:39:13;100031.19;;;13.73;59.76
74542;BME280;63015;45.378;20.360;2023-04-24T02:41:14;100023.31;;;13.74;59.93
74542;BME280;63015;45.378;20.360;2023-04-24T02:43:16;100015.47;;;13.74;59.59
74542;BME280;63015;45.378;20.360;2023-04-24T02:45:17;100022.47;;;13.72;59.66
74542;BME280;63015;45.378;20.360;2023-04-24T02:47:17;100024.25;;;13.72;59.77
74542;BME280;63015;45.378;20.360;2023-04-24T02:49:20;100025.25;;;13.64;59.85
74542;BME280;63015;45.378;20.360;2023-04-24T02:51:20;100018.97;;;13.73;59.64
74542;BME280;63015;45.378;20.360;2023-04-24T02:53:21;100018.13;;;13.71;59.77
74542;BME280;63015;45.378;20.360;2023-04-24T02:55:23;100012.84;;;13.73;59.46
74542;BME280;63015;45.378;20.360;2023-04-24T02:57:23;100023.25;;;13.77;59.35
74542;BME280;63015;45.378;20.360;2023-04-24T02:59:24;100027.63;;;13.77;59.54
74542;BME280;63015;45.378;20.360;2023-04-24T03:01:27;100025.22;;;13.66;59.73
74542;BME280;63015;45.378;20.360;2023-04-24T03:03:28;100023.53;;;13.63;59.77
74542;BME280;63015;45.378;20.360;2023-04-24T03:05:28;100021.78;;;13.62;59.96
74542;BME280;63015;45.378;20.360;2023-04-24T03:07:31;100022.63;;;13.64;59.84
74542;BME280;63015;45.378;20.360;2023-04-24T03:09:33;100024.47;;;13.59;60.00
74542;BME280;63015;45.378;20.360;2023-04-24T03:11:34;100024.47;;;13.59;60.16
74542;BME280;63015;45.378;20.360;2023-04-24T03:13:34;100034.88;;;13.64;59.84
74542;BME280;63015;45.378;20.360;2023-04-24T03:15:35;100037.47;;;13.65;59.97
74542;BME280;63015;45.378;20.360;2023-04-24T03:17:36;100044.44;;;13.67;59.78
74542;BME280;63015;45.378;20.360;2023-04-24T03:19:37;100055.75;;;13.67;59.64
74542;BME280;63015;45.378;20.360;2023-04-24T03:21:43;100061.69;;;13.77;59.52
74542;BME280;63015;45.378;20.360;2023-04-24T03:23:44;100070.31;;;13.82;59.15
74542;BME280;63015;45.378;20.360;2023-04-24T03:25:45;100062.41;;;13.84;59.04
74542;BME280;63015;45.378;20.360;2023-04-24T03:27:46;100056.34;;;13.81;59.07
74542;BME280;63015;45.378;20.360;2023-04-24T03:30:07;100061.53;;;13.83;59.36
74542;BME280;63015;45.378;20.360;2023-04-24T03:32:30;100053.88;;;13.74;60.06
74542;BME280;63015;45.378;20.360;2023-04-24T03:34:32;100068.75;;;13.72;60.09
74542;BME280;63015;45.378;20.360;2023-04-24T03:36:33;100064.38;;;13.72;60.00
74542;BME280;63015;45.378;20.360;2023-04-24T03:38:34;100065.22;;;13.74;60.02
74542;BME280;63015;45.378;20.360;2023-04-24T03:40:44;100049.56;;;13.71;60.30
74542;BME280;63015;45.378;20.360;2023-04-24T03:43:17;100048.94;;;13.58;61.10
74542;BME280;63015;45.378;20.360;2023-04-24T03:45:19;100048.94;;;13.58;61.28
74542;BME280;63015;45.378;20.360;2023-04-24T03:47:22;100050.75;;;13.56;61.37
74542;BME280;63015;45.378;20.360;2023-04-24T03:49:24;100053.34;;;13.56;61.55
74542;BME280;63015;45.378;20.360;2023-04-24T03:51:25;100056.09;;;13.50;62.14
74542;BME280;63015;45.378;20.360;2023-04-24T03:53:30;100070.16;;;13.43;62.48
74542;BME280;63015;45.378;20.360;2023-04-24T03:55:31;100072.78;;;13.43;62.41
74542;BME280;63015;45.378;20.360;2023-04-24T03:57:32;100065.88;;;13.39;62.55
74542;BME280;63015;45.378;20.360;2023-04-24T03:59:46;100058.03;;;13.39;62.57
74542;BME280;63015;45.378;20.360;2023-04-24T04:01:51;100058.06;;;13.36;62.76
74542;BME280;63015;45.378;20.360;2023-04-24T04:03:52;100034.78;;;13.20;64.07
74542;BME280;63015;45.378;20.360;2023-04-24T04:05:57;100022.50;;;13.24;63.84
74542;BME280;63015;45.378;20.360;2023-04-24T04:07:57;100020.91;;;13.16;64.20
74542;BME280;63015;45.378;20.360;2023-04-24T04:09:59;100006.91;;;13.18;64.20
74542;BME280;63015;45.378;20.360;2023-04-24T04:12:00;100020.00;;;13.16;64.64
74542;BME280;63015;45.378;20.360;2023-04-24T04:14:01;100018.34;;;13.12;64.53
74542;BME280;63015;45.378;20.360;2023-04-24T04:16:02;100030.44;;;13.18;64.27
74542;BME280;63015;45.378;20.360;2023-04-24T04:18:03;100023.63;;;13.10;64.67
74542;BME280;63015;45.378;20.360;2023-04-24T04:20:05;100033.06;;;13.18;64.47
74542;BME280;63015;45.378;20.360;2023-04-24T04:22:11;100036.50;;;13.23;64.14
74542;BME280;63015;45.378;20.360;2023-04-24T04:24:16;100021.72;;;13.20;64.38
74542;BME280;63015;45.378;20.360;2023-04-24T04:26:19;100016.59;;;13.14;64.61
74542;BME280;63015;45.378;20.360;2023-04-24T04:28:37;100017.44;;;13.14;64.81
74542;BME280;63015;45.378;20.360;2023-04-24T04:30:39;100014.78;;;13.16;64.68
74542;BME280;63015;45.378;20.360;2023-04-24T04:32:40;100017.41;;;13.16;64.76
74542;BME280;63015;45.378;20.360;2023-04-24T04:34:42;100023.59;;;13.12;64.91
74542;BME280;63015;45.378;20.360;2023-04-24T04:36:45;100007.78;;;13.18;64.41
74542;BME280;63015;45.378;20.360;2023-04-24T04:39:06;100025.09;;;13.25;64.11
74542;BME280;63015;45.378;20.360;2023-04-24T04:41:21;100016.41;;;13.23;64.60
74542;BME280;63015;45.378;20.360;2023-04-24T04:43:22;100026.00;;;13.24;64.12
74542;BME280;63015;45.378;20.360;2023-04-24T04:45:26;100026.84;;;13.25;63.93
74542;BME280;63015;45.378;20.360;2023-04-24T04:47:46;100033.63;;;13.37;63.93
74542;BME280;63015;45.378;20.360;2023-04-24T04:49:47;100031.91;;;13.36;63.85
74542;BME280;63015;45.378;20.360;2023-04-24T04:51:54;100020.53;;;13.37;63.76
74542;BME280;63015;45.378;20.360;2023-04-24T04:53:57;100025.63;;;13.46;63.60
74542;BME280;63015;45.378;20.360;2023-04-24T04:55:58;100036.94;;;13.46;63.74
74542;BME280;63015;45.378;20.360;2023-04-24T04:58:06;100016.09;;;13.43;64.12
74542;BME280;63015;45.378;20.360;2023-04-24T05:00:08;100009.94;;;13.46;63.83
74542;BME280;63015;45.378;20.360;2023-04-24T05:02:19;99997.75;;;13.42;64.26
74542;BME280;63015;45.378;20.360;2023-04-24T05:04:20;99999.50;;;13.43;64.37
74542;BME280;63015;45.378;20.360;2023-04-24T05:06:21;99999.31;;;13.52;63.32
74542;BME280;63015;45.378;20.360;2023-04-24T05:08:21;99998.22;;;13.64;63.06
74542;BME280;63015;45.378;20.360;2023-04-24T05:10:22;99993.69;;;13.72;62.61
74542;BME280;63015;45.378;20.360;2023-04-24T05:12:25;99990.00;;;13.81;62.19
74542;BME280;63015;45.378;20.360;2023-04-24T05:14:27;99985.56;;;13.85;62.23
74542;BME280;63015;45.378;20.360;2023-04-24T05:16:28;99992.34;;;13.95;61.96
74542;BME280;63015;45.378;20.360;2023-04-24T05:18:29;99998.16;;;14.08;61.56
74542;BME280;63015;45.378;20.360;2023-04-24T05:20:31;99988.44;;;14.13;61.56
74542;BME280;63015;45.378;20.360;2023-04-24T05:22:32;99992.50;;;14.26;60.63
74542;BME280;63015;45.378;20.360;2023-04-24T05:24:36;99987.09;;;14.34;60.01
74542;BME280;63015;45.378;20.360;2023-04-24T05:26:55;99983.19;;;14.51;59.14
74542;BME280;63015;45.378;20.360;2023-04-24T05:29:00;99994.31;;;14.62;58.65
74542;BME280;63015;45.378;20.360;2023-04-24T05:31:02;99981.00;;;14.71;58.00
74542;BME280;63015;45.378;20.360;2023-04-24T05:33:03;99981.88;;;14.70;58.54
74542;BME280;63015;45.378;20.360;2023-04-24T05:35:05;99986.00;;;14.80;58.19
74542;BME280;63015;45.378;20.360;2023-04-24T05:37:06;99986.78;;;14.84;58.07
74542;BME280;63015;45.378;20.360;2023-04-24T05:39:10;99995.47;;;14.86;58.26
74542;BME280;63015;45.378;20.360;2023-04-24T05:41:11;99989.25;;;14.90;58.31
74542;BME280;63015;45.378;20.360;2023-04-24T05:43:12;99993.78;;;14.84;58.60
74542;BME280;63015;45.378;20.360;2023-04-24T05:45:14;99990.06;;;14.92;58.18
74542;BME280;63015;45.378;20.360;2023-04-24T05:47:17;99990.09;;;14.91;58.47
74542;BME280;63015;45.378;20.360;2023-04-24T05:49:18;99987.44;;;14.92;58.44
74542;BME280;63015;45.378;20.360;2023-04-24T05:51:20;99997.03;;;14.93;58.40
74542;BME280;63015;45.378;20.360;2023-04-24T05:53:21;100000.50;;;14.95;58.47
74542;BME280;63015;45.378;20.360;2023-04-24T05:55:22;99994.09;;;15.06;58.17
74542;BME280;63015;45.378;20.360;2023-04-24T05:57:23;100001.03;;;15.08;58.21
74542;BME280;63015;45.378;20.360;2023-04-24T05:59:42;100002.53;;;15.17;58.33
74542;BME280;63015;45.378;20.360;2023-04-24T06:01:42;100008.34;;;15.28;58.10
74542;BME280;63015;45.378;20.360;2023-04-24T06:03:48;100010.72;;;15.39;57.95
74542;BME280;63015;45.378;20.360;2023-04-24T06:05:52;100011.25;;;15.51;57.94
74542;BME280;63015;45.378;20.360;2023-04-24T06:07:55;100017.16;;;15.59;58.00
74542;BME280;63015;45.378;20.360;2023-04-24T06:09:58;100033.50;;;15.69;57.73
74542;BME280;63015;45.378;20.360;2023-04-24T06:11:59;100020.41;;;15.67;57.92
74542;BME280;63015;45.378;20.360;2023-04-24T06:14:16;100033.38;;;15.73;58.34
74542;BME280;63015;45.378;20.360;2023-04-24T06:16:42;100035.72;;;15.86;58.72
74542;BME280;63015;45.378;20.360;2023-04-24T06:19:01;100032.53;;;16.04;58.43
74542;BME280;63015;45.378;20.360;2023-04-24T06:21:01;100035.34;;;16.28;58.06
74542;BME280;63015;45.378;20.360;2023-04-24T06:23:04;100029.34;;;16.51;57.35
74542;BME280;63015;45.378;20.360;2023-04-24T06:25:07;100036.13;;;16.58;57.20
74542;BME280;63015;45.378;20.360;2023-04-24T06:27:08;100035.69;;;16.72;57.12
74542;BME280;63015;45.378;20.360;2023-04-24T06:29:08;100046.78;;;16.82;56.74
74542;BME280;63015;45.378;20.360;2023-04-24T06:31:10;100056.88;;;16.96;56.30
74542;BME280;63015;45.378;20.360;2023-04-24T06:33:10;100059.81;;;17.14;56.09
74542;BME280;63015;45.378;20.360;2023-04-24T06:35:11;100067.25;;;17.28;55.80
74542;BME280;63015;45.378;20.360;2023-04-24T06:37:12;100075.13;;;17.28;55.67
74542;BME280;63015;45.378;20.360;2023-04-24T06:39:13;100072.25;;;17.08;55.59
74542;BME280;63015;45.378;20.360;2023-04-24T06:41:13;100087.59;;;16.67;56.28
74542;BME280;63015;45.378;20.360;2023-04-24T06:43:14;100095.78;;;16.58;56.14
74542;BME280;63015;45.378;20.360;2023-04-24T06:45:15;100099.31;;;16.57;56.30
74542;BME280;63015;45.378;20.360;2023-04-24T06:47:16;100089.88;;;16.50;56.31
74542;BME280;63015;45.378;20.360;2023-04-24T06:49:17;100100.13;;;16.29;56.57
74542;BME280;63015;45.378;20.360;2023-04-24T06:51:17;100094.59;;;16.10;56.96
74542;BME280;63015;45.378;20.360;2023-04-24T06:53:18;100097.50;;;15.99;57.43
74542;BME280;63015;45.378;20.360;2023-04-24T06:55:19;100108.16;;;15.94;57.52
74542;BME280;63015;45.378;20.360;2023-04-24T06:57:19;100107.78;;;15.74;58.51
74542;BME280;63015;45.378;20.360;2023-04-24T06:59:21;100118.56;;;15.65;59.23
74542;BME280;63015;45.378;20.360;2023-04-24T07:01:21;100120.31;;;15.64;59.60
74542;BME280;63015;45.378;20.360;2023-04-24T07:03:22;100128.31;;;15.59;60.70
74542;BME280;63015;45.378;20.360;2023-04-24T07:05:23;100140.72;;;15.54;60.68
74542;BME280;63015;45.378;20.360;2023-04-24T07:07:23;100149.41;;;15.56;60.91
74542;BME280;63015;45.378;20.360;2023-04-24T07:09:25;100150.84;;;15.34;62.71
74542;BME280;63015;45.378;20.360;2023-04-24T07:11:26;100158.69;;;15.35;62.45
74542;BME280;63015;45.378;20.360;2023-04-24T07:13:29;100157.09;;;15.29;62.68
74542;BME280;63015;45.378;20.360;2023-04-24T07:15:30;100164.06;;;15.31;62.61
74542;BME280;63015;45.378;20.360;2023-04-24T07:17:31;100162.09;;;15.39;62.44
74542;BME280;63015;45.378;20.360;2023-04-24T07:19:33;100169.13;;;15.38;62.63
74542;BME280;63015;45.378;20.360;2023-04-24T07:21:34;100158.50;;;15.43;62.67
74542;BME280;63015;45.378;20.360;2023-04-24T07:23:34;100164.59;;;15.45;62.81
74542;BME280;63015;45.378;20.360;2023-04-24T07:25:35;100175.19;;;15.42;62.58
74542;BME280;63015;45.378;20.360;2023-04-24T07:27:35;100164.06;;;15.31;63.01
74542;BME280;63015;45.378;20.360;2023-04-24T07:29:36;100171.75;;;15.38;62.48
74542;BME280;63015;45.378;20.360;2023-04-24T07:31:38;100163.00;;;15.39;62.40
74542;BME280;63015;45.378;20.360;2023-04-24T07:33:38;100173.50;;;15.38;62.61
74542;BME280;63015;45.378;20.360;2023-04-24T07:35:39;100168.25;;;15.39;62.36
74542;BME280;63015;45.378;20.360;2023-04-24T07:37:39;100168.38;;;15.33;63.08
74542;BME280;63015;45.378;20.360;2023-04-24T07:39:40;100165.91;;;15.27;62.86
74542;BME280;63015;45.378;20.360;2023-04-24T07:41:41;100142.31;;;15.25;63.06
74542;BME280;63015;45.378;20.360;2023-04-24T07:43:41;100157.97;;;15.28;62.40
74542;BME280;63015;45.378;20.360;2023-04-24T07:45:42;100157.97;;;15.28;62.41
74542;BME280;63015;45.378;20.360;2023-04-24T07:47:43;100154.69;;;15.20;61.92
74542;BME280;63015;45.378;20.360;2023-04-24T07:49:45;100145.19;;;15.15;62.10
74542;BME280;63015;45.378;20.360;2023-04-24T07:51:46;100144.38;;;15.12;62.30
74542;BME280;63015;45.378;20.360;2023-04-24T07:53:46;100148.94;;;15.04;62.47
74542;BME280;63015;45.378;20.360;2023-04-24T07:55:47;100157.75;;;15.02;62.79
74542;BME280;63015;45.378;20.360;2023-04-24T07:57:48;100156.78;;;15.06;62.72
74542;BME280;63015;45.378;20.360;2023-04-24T07:59:48;100162.13;;;15.01;63.14
74542;BME280;63015;45.378;20.360;2023-04-24T08:01:49;100153.44;;;14.99;63.28
74542;BME280;63015;45.378;20.360;2023-04-24T08:03:50;100150.19;;;14.89;63.79
74542;BME280;63015;45.378;20.360;2023-04-24T08:05:51;100147.78;;;14.80;64.63
74542;BME280;63015;45.378;20.360;2023-04-24T08:07:52;100144.44;;;14.72;65.32
74542;BME280;63015;45.378;20.360;2023-04-24T08:09:53;100128.25;;;14.51;65.89
74542;BME280;63015;45.378;20.360;2023-04-24T08:11:54;100121.34;;;14.47;65.84
74542;BME280;63015;45.378;20.360;2023-04-24T08:13:55;100126.69;;;14.42;66.56
74542;BME280;63015;45.378;20.360;2023-04-24T08:15:56;100117.25;;;14.35;67.03
74542;BME280;63015;45.378;20.360;2023-04-24T08:17:57;100131.31;;;14.31;67.31
74542;BME280;63015;45.378;20.360;2023-04-24T08:19:57;100135.75;;;14.27;67.31
74542;BME280;63015;45.378;20.360;2023-04-24T08:22:01;100136.69;;;14.25;68.20
74542;BME280;63015;45.378;20.360;2023-04-24T08:24:02;100135.81;;;14.24;68.17
74542;BME280;63015;45.378;20.360;2023-04-24T08:26:07;100140.13;;;14.27;68.70
74542;BME280;63015;45.378;20.360;2023-04-24T08:28:08;100144.34;;;14.34;68.79
74542;BME280;63015;45.378;20.360;2023-04-24T08:30:10;100144.09;;;14.45;68.63
74542;BME280;63015;45.378;20.360;2023-04-24T08:32:11;100145.81;;;14.47;68.89
74542;BME280;63015;45.378;20.360;2023-04-24T08:34:12;100140.44;;;14.54;68.65
74542;BME280;63015;45.378;20.360;2023-04-24T08:36:13;100138.47;;;14.63;68.37
74542;BME280;63015;45.378;20.360;2023-04-24T08:38:15;100135.81;;;14.67;69.08
74542;BME280;63015;45.378;20.360;2023-04-24T08:40:16;100148.00;;;14.69;69.24
74542;BME280;63015;45.378;20.360;2023-04-24T08:42:18;100145.28;;;14.74;68.62
74542;BME280;63015;45.378;20.360;2023-04-24T08:44:20;100148.66;;;14.79;68.80
74542;BME280;63015;45.378;20.360;2023-04-24T08:46:21;100138.81;;;14.89;68.32
74542;BME280;63015;45.378;20.360;2023-04-24T08:48:23;100143.91;;;14.95;68.18
74542;BME280;63015;45.378;20.360;2023-04-24T08:50:24;100142.13;;;14.97;68.38
74542;BME280;63015;45.378;20.360;2023-04-24T08:52:25;100143.84;;;14.98;68.22
74542;BME280;63015;45.378;20.360;2023-04-24T08:54:26;100140.13;;;15.07;67.97
74542;BME280;63015;45.378;20.360;2023-04-24T08:56:27;100142.75;;;15.07;68.38
74542;BME280;63015;45.378;20.360;2023-04-24T08:58:29;100145.59;;;14.98;68.90
74542;BME280;63015;45.378;20.360;2023-04-24T09:00:31;100144.75;;;14.97;68.84
74542;BME280;63015;45.378;20.360;2023-04-24T09:02:32;100142.50;;;15.18;67.97
74542;BME280;63015;45.378;20.360;2023-04-24T09:04:35;100138.91;;;15.22;67.65
74542;BME280;63015;45.378;20.360;2023-04-24T09:06:36;100135.44;;;15.20;68.24
74542;BME280;63015;45.378;20.360;2023-04-24T09:08:38;100130.84;;;15.29;67.58
74542;BME280;63015;45.378;20.360;2023-04-24T09:10:41;100143.13;;;15.29;67.50
74542;BME280;63015;45.378;20.360;2023-04-24T09:12:42;100139.66;;;15.27;67.52
74542;BME280;63015;45.378;20.360;2023-04-24T09:14:45;100140.31;;;15.35;67.19
74542;BME280;63015;45.378;20.360;2023-04-24T09:16:46;100140.41;;;15.32;66.90
74542;BME280;63015;45.378;20.360;2023-04-24T09:18:47;100131.50;;;15.38;66.51
74542;BME280;63015;45.378;20.360;2023-04-24T09:21:02;100136.19;;;15.26;66.19
74542;BME280;63015;45.378;20.360;2023-04-24T09:23:03;100126.63;;;15.22;66.24
74542;BME280;63015;45.378;20.360;2023-04-24T09:25:05;100137.81;;;15.31;66.61
74542;BME280;63015;45.378;20.360;2023-04-24T09:27:07;100126.25;;;15.38;66.53
74542;BME280;63015;45.378;20.360;2023-04-24T09:29:07;100126.97;;;15.44;66.76
74542;BME280;63015;45.378;20.360;2023-04-24T09:31:13;100125.84;;;15.55;66.84
74542;BME280;63015;45.378;20.360;2023-04-24T09:33:16;100124.59;;;15.68;66.42
74542;BME280;63015;45.378;20.360;2023-04-24T09:35:16;100126.03;;;15.80;66.30
74542;BME280;63015;45.378;20.360;2023-04-24T09:37:29;100114.88;;;16.05;66.12
74542;BME280;63015;45.378;20.360;2023-04-24T09:39:30;100110.13;;;16.18;66.03
74542;BME280;63015;45.378;20.360;2023-04-24T09:41:32;100100.13;;;16.31;65.42
74542;BME280;63015;45.378;20.360;2023-04-24T09:43:34;100100.63;;;16.42;65.26
74542;BME280;63015;45.378;20.360;2023-04-24T09:45:36;100100.16;;;16.57;64.40
74542;BME280;63015;45.378;20.360;2023-04-24T09:47:40;100101.56;;;16.69;64.19
74542;BME280;63015;45.378;20.360;2023-04-24T09:49:41;100095.06;;;16.81;63.91
74542;BME280;63015;45.378;20.360;2023-04-24T09:51:43;100098.41;;;16.86;63.24
74542;BME280;63015;45.378;20.360;2023-04-24T09:53:47;100095.25;;;16.75;63.46
74542;BME280;63015;45.378;20.360;2023-04-24T09:55:52;100096.09;;;16.75;62.79
74542;BME280;63015;45.378;20.360;2023-04-24T09:57:56;100096.06;;;16.77;62.24
74542;BME280;63015;45.378;20.360;2023-04-24T09:59:57;100098.97;;;16.68;62.53
74542;BME280;63015;45.378;20.360;2023-04-24T10:01:59;100100.56;;;16.45;63.27
74542;BME280;63015;45.378;20.360;2023-04-24T10:04:00;100100.72;;;16.39;63.27
74542;BME280;63015;45.378;20.360;2023-04-24T10:06:02;100104.25;;;16.38;63.95
74542;BME280;63015;45.378;20.360;2023-04-24T10:08:11;100099.97;;;16.35;64.27
74542;BME280;63015;45.378;20.360;2023-04-24T10:10:12;100098.28;;;16.33;63.83
74542;BME280;63015;45.378;20.360;2023-04-24T10:12:12;100100.84;;;16.36;63.83
74542;BME280;63015;45.378;20.360;2023-04-24T10:14:15;100095.59;;;16.34;64.14
74542;BME280;63015;45.378;20.360;2023-04-24T10:16:16;100108.97;;;16.28;64.47
74542;BME280;63015;45.378;20.360;2023-04-24T10:18:18;100099.22;;;16.30;64.37
74542;BME280;63015;45.378;20.360;2023-04-24T10:20:27;100100.91;;;16.33;64.82
74542;BME280;63015;45.378;20.360;2023-04-24T10:22:29;100109.56;;;16.36;65.07
74542;BME280;63015;45.378;20.360;2023-04-24T10:24:31;100097.75;;;16.50;64.99
74542;BME280;63015;45.378;20.360;2023-04-24T10:26:34;100107.31;;;16.54;65.42
74542;BME280;63015;45.378;20.360;2023-04-24T10:28:39;100098.69;;;16.49;65.29
74542;BME280;63015;45.378;20.360;2023-04-24T10:30:43;100091.84;;;16.43;65.46
74542;BME280;63015;45.378;20.360;2023-04-24T10:32:43;100090.81;;;16.49;64.96